createdAt,value
2016-03-19T00:00:29.517Z,0
2016-03-19T00:01:29.504Z,0
2016-03-19T00:02:29.537Z,0
2016-03-19T00:03:29.384Z,0
2016-03-19T00:04:29.543Z,0
2016-03-19T00:05:29.577Z,0
2016-03-19T00:06:29.564Z,0
2016-03-19T00:07:29.597Z,0
2016-03-19T00:08:29.585Z,0
2016-03-19T00:09:29.666Z,0
2016-03-19T00:10:29.622Z,0
2016-03-19T00:11:29.624Z,0
2016-03-19T00:12:29.658Z,0
2016-03-19T00:13:29.708Z,0
2016-03-19T00:14:29.694Z,0
2016-03-19T00:15:29.697Z,0
2016-03-19T00:16:29.700Z,0
2016-03-19T00:17:29.749Z,0
2016-03-19T00:18:29.738Z,0
2016-03-19T00:19:29.755Z,0
2016-03-19T00:20:29.774Z,0
2016-03-19T00:21:29.792Z,0
2016-03-19T00:22:29.779Z,0
2016-03-19T00:23:29.844Z,0
2016-03-19T00:24:29.847Z,0
2016-03-19T00:25:29.849Z,0
2016-03-19T00:26:29.837Z,0
2016-03-19T00:27:29.871Z,0
2016-03-19T00:28:29.889Z,0
2016-03-19T00:29:29.876Z,0
2016-03-19T00:30:29.145Z,0
2016-03-19T00:31:29.913Z,0
2016-03-19T00:32:29.931Z,0
2016-03-19T00:33:29.934Z,0
2016-03-19T00:34:29.953Z,0
2016-03-19T00:35:29.986Z,0
2016-03-19T00:36:30.004Z,0
2016-03-19T00:37:29.991Z,0
2016-03-19T00:38:30.026Z,0
2016-03-19T00:39:30.059Z,0
2016-03-19T00:40:30.047Z,0
2016-03-19T00:41:30.064Z,0
2016-03-19T00:42:30.083Z,0
2016-03-19T00:43:30.069Z,0
2016-03-19T00:44:30.089Z,0
2016-03-19T00:45:30.108Z,0
2016-03-19T00:46:30.125Z,0
2016-03-19T00:47:30.144Z,0
2016-03-19T00:48:30.130Z,0
2016-03-19T00:49:30.196Z,0
2016-03-19T00:50:30.183Z,0
2016-03-19T00:51:30.202Z,0
2016-03-19T00:52:30.235Z,0
2016-03-19T00:53:30.238Z,0
2016-03-19T00:54:30.257Z,0
2016-03-19T00:55:30.259Z,0
2016-03-19T00:56:30.262Z,0
2016-03-19T00:57:30.327Z,0
2016-03-19T00:58:30.267Z,0
2016-03-19T00:59:30.301Z,0
2016-03-19T01:00:30.304Z,0
2016-03-19T01:01:30.165Z,0
2016-03-19T01:02:30.356Z,0
2016-03-19T01:03:30.358Z,0
2016-03-19T01:04:30.362Z,0
2016-03-19T01:05:30.379Z,0
2016-03-19T01:06:30.414Z,0
2016-03-19T01:07:30.432Z,0
2016-03-19T01:08:30.441Z,0
2016-03-19T01:09:30.418Z,0
2016-03-19T01:10:30.412Z,0
2016-03-19T01:11:30.452Z,0
2016-03-19T01:12:30.429Z,0
2016-03-19T01:13:30.443Z,0
2016-03-19T01:14:30.442Z,0
2016-03-19T01:15:30.442Z,0
2016-03-19T01:16:30.488Z,0
2016-03-19T01:17:30.487Z,0
2016-03-19T01:18:30.504Z,0
2016-03-19T01:19:30.490Z,0
2016-03-19T01:20:30.538Z,0
2016-03-19T01:21:30.555Z,0
2016-03-19T01:22:30.557Z,0
2016-03-19T01:23:30.575Z,0
2016-03-19T01:24:30.577Z,0
2016-03-19T01:25:30.580Z,0
2016-03-19T01:26:30.598Z,0
2016-03-19T01:27:30.615Z,0
2016-03-19T01:28:30.618Z,0
2016-03-19T01:29:30.637Z,0
2016-03-19T01:30:30.656Z,0
2016-03-19T01:31:30.658Z,0
2016-03-19T01:32:30.722Z,0
2016-03-19T01:33:30.678Z,0
2016-03-19T01:34:30.697Z,0
2016-03-19T01:35:30.778Z,0
2016-03-19T01:36:30.718Z,0
2016-03-19T01:37:30.736Z,0
2016-03-19T01:38:30.786Z,0
2016-03-19T01:39:30.772Z,0
2016-03-19T01:40:30.791Z,0
2016-03-19T01:41:30.810Z,0
2016-03-19T01:42:30.843Z,0
2016-03-19T01:43:30.830Z,0
2016-03-19T01:44:30.863Z,0
2016-03-19T01:45:30.899Z,0
2016-03-19T01:46:30.885Z,0
2016-03-19T01:47:30.888Z,0
2016-03-19T01:48:30.891Z,0
2016-03-19T01:49:30.924Z,0
2016-03-19T01:50:30.927Z,0
2016-03-19T01:51:30.945Z,0
2016-03-19T01:52:30.949Z,0
2016-03-19T01:53:30.967Z,0
2016-03-19T01:54:30.985Z,0
2016-03-19T01:55:31.003Z,0
2016-03-19T01:56:31.037Z,0
2016-03-19T01:57:31.024Z,0
2016-03-19T01:58:31.058Z,0
2016-03-19T01:59:31.062Z,0
2016-03-19T02:00:31.064Z,0
2016-03-19T02:01:31.082Z,0
2016-03-19T02:02:31.084Z,0
2016-03-19T02:03:31.103Z,0
2016-03-19T02:04:31.137Z,0
2016-03-19T02:05:30.390Z,0
2016-03-19T02:06:31.173Z,0
2016-03-19T02:07:31.004Z,0
2016-03-19T02:08:31.211Z,0
2016-03-19T02:09:31.181Z,0
2016-03-19T02:10:31.200Z,0
2016-03-19T02:11:31.234Z,0
2016-03-19T02:12:31.221Z,0
2016-03-19T02:13:31.224Z,0
2016-03-19T02:14:31.241Z,0
2016-03-19T02:15:31.308Z,0
2016-03-19T02:16:31.310Z,0
2016-03-19T02:17:31.296Z,0
2016-03-19T02:18:31.299Z,0
2016-03-19T02:19:31.318Z,0
2016-03-19T02:20:31.335Z,0
2016-03-19T02:21:31.354Z,0
2016-03-19T02:22:31.373Z,0
2016-03-19T02:23:31.376Z,0
2016-03-19T02:24:31.393Z,0
2016-03-19T02:25:31.396Z,0
2016-03-19T02:26:31.431Z,0
2016-03-19T02:27:31.434Z,0
2016-03-19T02:28:31.482Z,0
2016-03-19T02:29:31.453Z,0
2016-03-19T02:30:31.487Z,0
2016-03-19T02:31:31.490Z,0
2016-03-19T02:32:31.509Z,0
2016-03-19T02:33:31.512Z,0
2016-03-19T02:34:31.531Z,0
2016-03-19T02:35:31.548Z,0
2016-03-19T02:36:31.550Z,0
2016-03-19T02:37:31.585Z,0
2016-03-19T02:38:31.588Z,0
2016-03-19T02:39:30.841Z,0
2016-03-19T02:40:31.639Z,0
2016-03-19T02:41:31.611Z,0
2016-03-19T02:42:31.645Z,0
2016-03-19T02:43:31.664Z,0
2016-03-19T02:44:31.666Z,0
2016-03-19T02:45:31.669Z,0
2016-03-19T02:46:31.688Z,0
2016-03-19T02:47:31.705Z,0
2016-03-19T02:48:31.708Z,0
2016-03-19T02:49:31.743Z,0
2016-03-19T02:50:31.746Z,0
2016-03-19T02:51:31.763Z,0
2016-03-19T02:52:31.765Z,0
2016-03-19T02:53:31.862Z,0
2016-03-19T02:54:31.834Z,0
2016-03-19T02:55:31.821Z,0
2016-03-19T02:56:31.839Z,0
2016-03-19T02:57:31.857Z,0
2016-03-19T02:58:31.860Z,0
2016-03-19T02:59:31.878Z,0
2016-03-19T03:00:31.882Z,0
2016-03-19T03:01:31.915Z,0
2016-03-19T03:02:31.903Z,0
2016-03-19T03:03:31.936Z,0
2016-03-19T03:04:31.954Z,0
2016-03-19T03:05:31.801Z,0
2016-03-19T03:06:31.959Z,0
2016-03-19T03:07:31.978Z,0
2016-03-19T03:08:32.012Z,0
2016-03-19T03:09:31.999Z,0
2016-03-19T03:10:31.861Z,0
2016-03-19T03:11:31.880Z,0
2016-03-19T03:12:32.039Z,0
2016-03-19T03:13:32.057Z,0
2016-03-19T03:14:32.105Z,0
2016-03-19T03:15:32.093Z,0
2016-03-19T03:16:32.111Z,0
2016-03-19T03:17:32.099Z,0
2016-03-19T03:18:32.179Z,0
2016-03-19T03:19:32.152Z,0
2016-03-19T03:20:32.185Z,0
2016-03-19T03:21:32.171Z,0
2016-03-19T03:22:32.190Z,0
2016-03-19T03:23:32.209Z,0
2016-03-19T03:24:32.227Z,0
2016-03-19T03:25:32.245Z,0
2016-03-19T03:26:32.232Z,0
2016-03-19T03:27:32.266Z,0
2016-03-19T03:28:32.284Z,0
2016-03-19T03:29:32.287Z,0
2016-03-19T03:30:32.306Z,0
2016-03-19T03:31:32.324Z,0
2016-03-19T03:32:32.327Z,0
2016-03-19T03:33:32.173Z,0
2016-03-19T03:34:32.348Z,0
2016-03-19T03:35:32.381Z,0
2016-03-19T03:36:32.369Z,0
2016-03-19T03:37:32.403Z,0
2016-03-19T03:38:32.421Z,0
2016-03-19T03:39:32.455Z,0
2016-03-19T03:40:32.458Z,0
2016-03-19T03:41:32.445Z,0
2016-03-19T03:42:32.479Z,0
2016-03-19T03:43:32.481Z,0
2016-03-19T03:44:32.483Z,0
2016-03-19T03:45:32.486Z,0
2016-03-19T03:46:31.771Z,0
2016-03-19T03:47:32.538Z,0
2016-03-19T03:48:32.557Z,0
2016-03-19T03:49:32.574Z,0
2016-03-19T03:50:32.578Z,0
2016-03-19T03:51:32.580Z,0
2016-03-19T03:52:32.599Z,0
2016-03-19T03:53:32.618Z,0
2016-03-19T03:54:32.620Z,0
2016-03-19T03:55:32.623Z,0
2016-03-19T03:56:32.672Z,0
2016-03-19T03:57:32.504Z,0
2016-03-19T03:58:32.693Z,0
2016-03-19T03:59:32.695Z,0
2016-03-19T04:00:32.573Z,0
2016-03-19T04:01:32.732Z,0
2016-03-19T04:02:32.751Z,0
2016-03-19T04:03:32.737Z,0
2016-03-19T04:04:32.773Z,0
2016-03-19T04:05:32.790Z,0
2016-03-19T04:06:32.808Z,0
2016-03-19T04:07:32.811Z,0
2016-03-19T04:08:32.861Z,0
2016-03-19T04:09:32.817Z,0
2016-03-19T04:10:32.850Z,0
2016-03-19T04:11:32.869Z,0
2016-03-19T04:12:32.886Z,0
2016-03-19T04:13:32.890Z,0
2016-03-19T04:14:32.892Z,0
2016-03-19T04:15:32.911Z,0
2016-03-19T04:16:32.930Z,0
2016-03-19T04:17:32.947Z,0
2016-03-19T04:18:32.950Z,0
2016-03-19T04:19:32.969Z,0
2016-03-19T04:20:33.003Z,0
2016-03-19T04:21:33.005Z,0
2016-03-19T04:22:33.007Z,0
2016-03-19T04:23:33.041Z,0
2016-03-19T04:24:33.060Z,0
2016-03-19T04:25:33.062Z,0
2016-03-19T04:26:33.066Z,0
2016-03-19T04:27:33.099Z,0
2016-03-19T04:28:33.102Z,0
2016-03-19T04:29:33.120Z,0
2016-03-19T04:30:33.107Z,0
2016-03-19T04:31:33.142Z,0
2016-03-19T04:32:33.159Z,0
2016-03-19T04:33:33.162Z,0
2016-03-19T04:34:33.227Z,0
2016-03-19T04:35:33.199Z,0
2016-03-19T04:36:33.217Z,0
2016-03-19T04:37:33.220Z,0
2016-03-19T04:38:33.239Z,0
2016-03-19T04:39:33.256Z,0
2016-03-19T04:40:33.244Z,0
2016-03-19T04:41:33.277Z,0
2016-03-19T04:42:33.297Z,0
2016-03-19T04:43:33.299Z,0
2016-03-19T04:44:33.177Z,0
2016-03-19T04:45:33.335Z,0
2016-03-19T04:46:33.353Z,0
2016-03-19T04:47:33.356Z,0
2016-03-19T04:48:33.390Z,0
2016-03-19T04:49:33.394Z,0
2016-03-19T04:50:33.411Z,0
2016-03-19T04:51:33.414Z,0
2016-03-19T04:52:33.448Z,0
2016-03-19T04:53:33.466Z,0
2016-03-19T04:54:33.469Z,0
2016-03-19T04:55:33.471Z,0
2016-03-19T04:56:33.459Z,0
2016-03-19T04:57:33.508Z,0
2016-03-19T04:58:33.510Z,0
2016-03-19T04:59:33.529Z,0
2016-03-19T05:00:33.579Z,0
2016-03-19T05:01:33.535Z,0
2016-03-19T05:02:33.554Z,0
2016-03-19T05:03:33.571Z,0
2016-03-19T05:04:33.573Z,0
2016-03-19T05:05:33.609Z,0
2016-03-19T05:06:33.626Z,0
2016-03-19T05:07:33.613Z,0
2016-03-19T05:08:33.647Z,0
2016-03-19T05:09:33.681Z,0
2016-03-19T05:10:33.668Z,0
2016-03-19T05:11:33.686Z,4
2016-03-19T05:12:33.721Z,4
2016-03-19T05:13:33.739Z,0
2016-03-19T05:14:33.742Z,4
2016-03-19T05:15:32.994Z,4
2016-03-19T05:16:33.763Z,4
2016-03-19T05:17:33.765Z,4
2016-03-19T05:18:33.783Z,4
2016-03-19T05:19:33.785Z,8
2016-03-19T05:20:33.789Z,4
2016-03-19T05:21:33.854Z,8
2016-03-19T05:22:33.841Z,12
2016-03-19T05:23:33.874Z,8
2016-03-19T05:24:33.878Z,12
2016-03-19T05:25:33.865Z,12
2016-03-19T05:26:33.882Z,16
2016-03-19T05:27:33.918Z,16
2016-03-19T05:28:33.904Z,20
2016-03-19T05:29:33.954Z,20
2016-03-19T05:30:33.971Z,24
2016-03-19T05:31:33.959Z,28
2016-03-19T05:32:33.806Z,32
2016-03-19T05:33:33.995Z,32
2016-03-19T05:34:33.999Z,36
2016-03-19T05:35:34.017Z,40
2016-03-19T05:36:34.035Z,48
2016-03-19T05:37:34.053Z,56
2016-03-19T05:38:34.056Z,60
2016-03-19T05:39:34.059Z,68
2016-03-19T05:40:34.092Z,76
2016-03-19T05:41:34.080Z,76
2016-03-19T05:42:34.113Z,84
2016-03-19T05:43:34.132Z,96
2016-03-19T05:44:34.119Z,104
2016-03-19T05:45:34.153Z,112
2016-03-19T05:46:34.156Z,112
2016-03-19T05:47:34.205Z,108
2016-03-19T05:48:34.192Z,108
2016-03-19T05:49:34.194Z,112
2016-03-19T05:50:34.230Z,120
2016-03-19T05:51:34.232Z,132
2016-03-19T05:52:34.235Z,140
2016-03-19T05:53:34.252Z,152
2016-03-19T05:54:34.271Z,160
2016-03-19T05:55:34.274Z,160
2016-03-19T05:56:34.323Z,164
2016-03-19T05:57:34.388Z,180
2016-03-19T05:58:34.360Z,196
2016-03-19T05:59:34.347Z,208
2016-03-19T06:00:34.381Z,216
2016-03-19T06:01:34.398Z,212
2016-03-19T06:02:34.371Z,220
2016-03-19T06:03:34.389Z,228
2016-03-19T06:04:34.407Z,236
2016-03-19T06:05:34.425Z,248
2016-03-19T06:06:34.131Z,252
2016-03-19T06:07:34.462Z,268
2016-03-19T06:08:34.448Z,280
2016-03-19T06:09:34.499Z,284
2016-03-19T06:10:34.501Z,288
2016-03-19T06:11:34.503Z,300
2016-03-19T06:12:34.429Z,316
2016-03-19T06:13:34.525Z,324
2016-03-19T06:14:34.387Z,320
2016-03-19T06:15:34.577Z,316
2016-03-19T06:16:34.580Z,324
2016-03-19T06:17:34.598Z,324
2016-03-19T06:18:34.600Z,332
2016-03-19T06:19:34.603Z,348
2016-03-19T06:20:34.653Z,368
2016-03-19T06:21:34.672Z,380
2016-03-19T06:22:34.674Z,404
2016-03-19T06:23:34.677Z,432
2016-03-19T06:24:34.726Z,448
2016-03-19T06:25:34.714Z,464
2016-03-19T06:26:34.732Z,496
2016-03-19T06:27:34.890Z,536
2016-03-19T06:28:34.752Z,572
2016-03-19T06:29:34.755Z,612
2016-03-19T06:30:34.761Z,640
2016-03-19T06:31:34.795Z,676
2016-03-19T06:32:34.798Z,708
2016-03-19T06:33:34.801Z,740
2016-03-19T06:34:34.818Z,760
2016-03-19T06:35:34.837Z,784
2016-03-19T06:36:34.856Z,796
2016-03-19T06:37:34.873Z,780
2016-03-19T06:38:34.876Z,756
2016-03-19T06:39:34.909Z,748
2016-03-19T06:40:34.898Z,760
2016-03-19T06:41:34.915Z,780
2016-03-19T06:42:34.981Z,796
2016-03-19T06:43:34.953Z,808
2016-03-19T06:44:34.970Z,832
2016-03-19T06:45:34.973Z,860
2016-03-19T06:46:34.991Z,888
2016-03-19T06:47:34.995Z,916
2016-03-19T06:48:35.044Z,964
2016-03-19T06:49:35.047Z,1012
2016-03-19T06:50:35.033Z,1056
2016-03-19T06:51:35.067Z,1108
2016-03-19T06:52:35.070Z,1152
2016-03-19T06:53:35.088Z,1196
2016-03-19T06:54:35.091Z,1220
2016-03-19T06:55:35.110Z,1208
2016-03-19T06:56:35.127Z,1196
2016-03-19T06:57:35.146Z,1184
2016-03-19T06:58:35.165Z,1196
2016-03-19T06:59:34.996Z,1216
2016-03-19T07:00:35.185Z,1216
2016-03-19T07:01:35.188Z,1184
2016-03-19T07:02:35.237Z,1152
2016-03-19T07:03:35.225Z,1132
2016-03-19T07:04:35.243Z,1120
2016-03-19T07:05:35.246Z,1112
2016-03-19T07:06:35.280Z,1108
2016-03-19T07:07:35.126Z,1108
2016-03-19T07:08:34.551Z,1116
2016-03-19T07:09:35.320Z,1120
2016-03-19T07:10:35.337Z,1136
2016-03-19T07:11:35.325Z,1148
2016-03-19T07:12:35.373Z,1180
2016-03-19T07:13:35.361Z,1220
2016-03-19T07:14:35.411Z,1260
2016-03-19T07:15:35.366Z,1284
2016-03-19T07:16:35.401Z,1288
2016-03-19T07:17:35.434Z,1276
2016-03-19T07:18:35.422Z,1260
2016-03-19T07:19:35.455Z,1276
2016-03-19T07:20:35.442Z,1308
2016-03-19T07:21:35.477Z,1316
2016-03-19T07:22:35.480Z,1308
2016-03-19T07:23:35.497Z,1308
2016-03-19T07:24:35.547Z,1332
2016-03-19T07:25:35.550Z,1388
2016-03-19T07:26:35.552Z,1436
2016-03-19T07:27:35.571Z,1408
2016-03-19T07:28:35.605Z,1356
2016-03-19T07:29:35.592Z,1324
2016-03-19T07:30:35.610Z,1356
2016-03-19T07:31:35.629Z,1388
2016-03-19T07:32:35.647Z,1368
2016-03-19T07:33:35.649Z,1348
2016-03-19T07:34:35.652Z,1360
2016-03-19T07:35:35.671Z,1404
2016-03-19T07:36:35.688Z,1456
2016-03-19T07:37:35.707Z,1500
2016-03-19T07:38:35.726Z,1544
2016-03-19T07:39:35.743Z,1564
2016-03-19T07:40:35.762Z,1540
2016-03-19T07:41:35.764Z,1524
2016-03-19T07:42:35.768Z,1556
2016-03-19T07:43:35.801Z,1604
2016-03-19T07:44:35.820Z,1624
2016-03-19T07:45:35.806Z,1608
2016-03-19T07:46:35.825Z,1592
2016-03-19T07:47:35.843Z,1624
2016-03-19T07:48:35.111Z,1656
2016-03-19T07:49:35.864Z,1664
2016-03-19T07:50:35.883Z,1692
2016-03-19T07:51:35.886Z,1720
2016-03-19T07:52:35.903Z,1732
2016-03-19T07:53:35.938Z,1752
2016-03-19T07:54:35.955Z,1744
2016-03-19T07:55:35.943Z,1708
2016-03-19T07:56:35.976Z,1680
2016-03-19T07:57:35.994Z,1700
2016-03-19T07:58:36.013Z,1748
2016-03-19T07:59:36.016Z,1792
2016-03-19T08:00:36.034Z,1800
2016-03-19T08:01:36.037Z,1784
2016-03-19T08:02:36.055Z,1780
2016-03-19T08:03:36.057Z,1784
2016-03-19T08:04:36.093Z,1792
2016-03-19T08:05:36.110Z,1788
2016-03-19T08:06:36.129Z,1800
2016-03-19T08:07:36.131Z,1832
2016-03-19T08:08:36.149Z,1864
2016-03-19T08:09:36.151Z,1892
2016-03-19T08:10:36.170Z,1908
2016-03-19T08:11:36.189Z,1928
2016-03-19T08:12:36.192Z,1952
2016-03-19T08:13:36.210Z,2008
2016-03-19T08:14:36.229Z,2088
2016-03-19T08:15:36.231Z,2136
2016-03-19T08:16:36.250Z,2164
2016-03-19T08:17:36.252Z,2192
2016-03-19T08:18:36.301Z,2224
2016-03-19T08:19:36.273Z,2216
2016-03-19T08:20:36.339Z,2192
2016-03-19T08:21:36.325Z,2160
2016-03-19T08:22:36.312Z,2140
2016-03-19T08:23:36.362Z,2136
2016-03-19T08:24:36.364Z,2148
2016-03-19T08:25:36.367Z,2140
2016-03-19T08:26:36.402Z,2096
2016-03-19T08:27:36.389Z,2040
2016-03-19T08:28:36.422Z,2000
2016-03-19T08:29:36.424Z,1996
2016-03-19T08:30:36.427Z,2036
2016-03-19T08:31:36.477Z,2120
2016-03-19T08:32:36.480Z,2196
2016-03-19T08:33:36.483Z,2224
2016-03-19T08:34:36.486Z,2244
2016-03-19T08:35:36.519Z,2252
2016-03-19T08:36:36.568Z,2268
2016-03-19T08:37:36.524Z,2268
2016-03-19T08:38:36.559Z,2256
2016-03-19T08:39:36.561Z,2228
2016-03-19T08:40:36.564Z,2184
2016-03-19T08:41:35.848Z,2140
2016-03-19T08:42:36.632Z,2120
2016-03-19T08:43:36.618Z,2112
2016-03-19T08:44:36.653Z,2116
2016-03-19T08:45:36.656Z,2128
2016-03-19T08:46:36.658Z,2144
2016-03-19T08:47:36.692Z,2156
2016-03-19T08:48:36.725Z,2192
2016-03-19T08:49:36.714Z,2268
2016-03-19T08:50:36.731Z,2356
2016-03-19T08:51:36.749Z,2408
2016-03-19T08:52:36.753Z,2388
2016-03-19T08:53:36.770Z,2316
2016-03-19T08:54:36.805Z,2284
2016-03-19T08:55:36.775Z,2332
2016-03-19T08:56:36.811Z,2428
2016-03-19T08:57:36.828Z,2500
2016-03-19T08:58:36.830Z,2492
2016-03-19T08:59:36.866Z,2452
2016-03-19T09:00:36.868Z,2400
2016-03-19T09:01:36.871Z,2352
2016-03-19T09:02:36.888Z,2284
2016-03-19T09:03:36.922Z,2240
2016-03-19T09:04:36.925Z,2204
2016-03-19T09:05:36.943Z,2164
2016-03-19T09:06:36.963Z,2152
2016-03-19T09:07:36.949Z,2136
2016-03-19T09:08:36.983Z,2104
2016-03-19T09:09:37.001Z,2076
2016-03-19T09:10:37.004Z,2048
2016-03-19T09:11:37.022Z,2016
2016-03-19T09:12:37.040Z,1944
2016-03-19T09:13:37.042Z,1864
2016-03-19T09:14:37.062Z,1756
2016-03-19T09:15:37.079Z,1688
2016-03-19T09:16:37.098Z,1632
2016-03-19T09:17:37.117Z,1608
2016-03-19T09:18:37.134Z,1596
2016-03-19T09:19:37.153Z,1620
2016-03-19T09:20:37.171Z,1652
2016-03-19T09:21:37.175Z,1692
2016-03-19T09:22:37.161Z,1740
2016-03-19T09:23:37.211Z,1768
2016-03-19T09:24:37.182Z,1808
2016-03-19T09:25:37.231Z,1884
2016-03-19T09:26:37.234Z,1952
2016-03-19T09:27:37.236Z,1968
2016-03-19T09:28:37.255Z,1964
2016-03-19T09:29:37.274Z,1956
2016-03-19T09:30:37.433Z,1952
2016-03-19T09:31:37.310Z,1952
2016-03-19T09:32:37.313Z,1952
2016-03-19T09:33:37.347Z,1952
2016-03-19T09:34:37.349Z,1964
2016-03-19T09:35:37.368Z,1988
2016-03-19T09:36:37.386Z,2044
2016-03-19T09:37:37.389Z,2080
2016-03-19T09:38:37.391Z,2032
2016-03-19T09:39:37.410Z,1984
2016-03-19T09:40:37.444Z,1952
2016-03-19T09:41:37.446Z,1948
2016-03-19T09:42:37.481Z,1928
2016-03-19T09:43:37.484Z,1900
2016-03-19T09:44:37.501Z,1856
2016-03-19T09:45:37.489Z,1844
2016-03-19T09:46:37.537Z,1880
2016-03-19T09:47:37.541Z,1948
2016-03-19T09:48:37.559Z,2020
2016-03-19T09:49:37.546Z,2072
2016-03-19T09:50:37.565Z,2068
2016-03-19T09:51:37.598Z,2048
2016-03-19T09:52:37.601Z,2036
2016-03-19T09:53:37.603Z,2024
2016-03-19T09:54:37.638Z,2040
2016-03-19T09:55:37.641Z,2080
2016-03-19T09:56:37.658Z,2128
2016-03-19T09:57:37.677Z,2176
2016-03-19T09:58:37.695Z,2232
2016-03-19T09:59:37.683Z,2304
2016-03-19T10:00:36.983Z,2380
2016-03-19T10:01:37.750Z,2440
2016-03-19T10:02:37.753Z,2480
2016-03-19T10:03:37.787Z,2500
2016-03-19T10:04:37.758Z,2564
2016-03-19T10:05:37.793Z,2552
2016-03-19T10:06:37.811Z,2508
2016-03-19T10:07:37.844Z,2512
2016-03-19T10:08:37.847Z,2528
2016-03-19T10:09:37.849Z,2536
2016-03-19T10:10:37.868Z,2576
2016-03-19T10:11:37.887Z,2576
2016-03-19T10:12:37.890Z,2556
2016-03-19T10:13:37.908Z,2528
2016-03-19T10:14:37.896Z,2520
2016-03-19T10:15:37.883Z,2524
2016-03-19T10:16:37.886Z,2512
2016-03-19T10:17:37.904Z,2500
2016-03-19T10:18:37.906Z,2484
2016-03-19T10:19:37.903Z,2464
2016-03-19T10:20:37.915Z,2484
2016-03-19T10:21:37.913Z,2556
2016-03-19T10:22:37.910Z,2592
2016-03-19T10:23:37.954Z,2576
2016-03-19T10:24:37.939Z,2556
2016-03-19T10:25:38.002Z,2596
2016-03-19T10:26:37.956Z,2668
2016-03-19T10:27:38.004Z,2748
2016-03-19T10:28:38.005Z,2796
2016-03-19T10:29:37.991Z,2808
2016-03-19T10:30:38.024Z,2812
2016-03-19T10:31:38.026Z,2828
2016-03-19T10:32:38.059Z,2852
2016-03-19T10:33:38.061Z,2872
2016-03-19T10:34:38.095Z,2884
2016-03-19T10:35:38.129Z,2892
2016-03-19T10:36:38.099Z,2892
2016-03-19T10:37:38.086Z,2880
2016-03-19T10:38:38.120Z,2832
2016-03-19T10:39:38.153Z,2768
2016-03-19T10:40:38.156Z,2712
2016-03-19T10:41:38.189Z,2696
2016-03-19T10:42:38.177Z,2708
2016-03-19T10:43:38.195Z,2696
2016-03-19T10:44:38.230Z,2652
2016-03-19T10:45:38.233Z,2596
2016-03-19T10:46:38.250Z,2576
2016-03-19T10:47:38.128Z,2596
2016-03-19T10:48:38.302Z,2660
2016-03-19T10:49:38.274Z,2744
2016-03-19T10:50:38.324Z,2816
2016-03-19T10:51:37.576Z,2860
2016-03-19T10:52:38.329Z,2884
2016-03-19T10:53:38.347Z,2904
2016-03-19T10:54:38.366Z,2920
2016-03-19T10:55:38.369Z,2936
2016-03-19T10:56:38.371Z,2944
2016-03-19T10:57:38.405Z,2960
2016-03-19T10:58:38.407Z,2984
2016-03-19T10:59:38.442Z,2996
2016-03-19T11:00:38.445Z,2996
2016-03-19T11:01:38.462Z,3024
2016-03-19T11:02:38.481Z,3088
2016-03-19T11:03:38.484Z,3156
2016-03-19T11:04:38.533Z,3176
2016-03-19T11:05:38.520Z,3144
2016-03-19T11:06:38.539Z,3056
2016-03-19T11:07:38.541Z,2944
2016-03-19T11:08:38.559Z,2856
2016-03-19T11:09:38.578Z,2780
2016-03-19T11:10:38.597Z,2708
2016-03-19T11:11:38.614Z,2640
2016-03-19T11:12:38.602Z,2592
2016-03-19T11:13:38.636Z,2572
2016-03-19T11:14:38.638Z,2576
2016-03-19T11:15:38.672Z,2596
2016-03-19T11:16:38.706Z,2592
2016-03-19T11:17:38.708Z,2536
2016-03-19T11:18:38.711Z,2448
2016-03-19T11:19:38.729Z,2384
2016-03-19T11:20:38.749Z,2368
2016-03-19T11:21:38.782Z,2392
2016-03-19T11:22:38.769Z,2448
2016-03-19T11:23:38.771Z,2548
2016-03-19T11:24:38.821Z,2648
2016-03-19T11:25:38.808Z,2720
2016-03-19T11:26:38.810Z,2792
2016-03-19T11:27:38.846Z,2872
2016-03-19T11:28:38.879Z,2964
2016-03-19T11:29:38.866Z,3040
2016-03-19T11:30:38.962Z,3084
2016-03-19T11:31:38.996Z,3128
2016-03-19T11:32:38.967Z,3188
2016-03-19T11:33:39.001Z,3264
2016-03-19T11:34:39.051Z,3316
2016-03-19T11:35:39.039Z,3388
2016-03-19T11:36:39.042Z,3524
2016-03-19T11:37:39.013Z,3688
2016-03-19T11:38:39.062Z,3824
2016-03-19T11:39:39.081Z,3912
2016-03-19T11:40:39.083Z,3968
2016-03-19T11:41:38.336Z,4008
2016-03-19T11:42:39.088Z,4056
2016-03-19T11:43:39.138Z,4156
2016-03-19T11:44:39.124Z,4280
2016-03-19T11:45:39.158Z,4356
2016-03-19T11:46:39.131Z,4376
2016-03-19T11:47:39.149Z,4364
2016-03-19T11:48:39.152Z,4360
2016-03-19T11:49:39.155Z,4392
2016-03-19T11:50:39.172Z,4460
2016-03-19T11:51:39.206Z,4556
2016-03-19T11:52:39.225Z,4640
2016-03-19T11:53:39.227Z,4700
2016-03-19T11:54:39.215Z,4732
2016-03-19T11:55:39.232Z,4728
2016-03-19T11:56:39.282Z,4692
2016-03-19T11:57:39.269Z,4672
2016-03-19T11:58:39.303Z,4616
2016-03-19T11:59:39.306Z,4564
2016-03-19T12:00:39.293Z,4580
2016-03-19T12:01:39.311Z,4652
2016-03-19T12:02:39.362Z,4748
2016-03-19T12:03:39.379Z,4884
2016-03-19T12:04:39.367Z,5036
2016-03-19T12:05:38.634Z,5156
2016-03-19T12:06:39.403Z,5244
2016-03-19T12:07:39.421Z,5320
2016-03-19T12:08:39.455Z,5360
2016-03-19T12:09:39.442Z,5352
2016-03-19T12:10:39.476Z,5316
2016-03-19T12:11:39.479Z,5280
2016-03-19T12:12:39.482Z,5276
2016-03-19T12:13:39.500Z,5304
2016-03-19T12:14:39.519Z,5356
2016-03-19T12:15:39.536Z,5424
2016-03-19T12:16:39.555Z,5464
2016-03-19T12:17:39.557Z,5412
2016-03-19T12:18:39.561Z,5320
2016-03-19T12:19:39.594Z,5316
2016-03-19T12:20:39.613Z,5340
2016-03-19T12:21:39.630Z,5376
2016-03-19T12:22:39.633Z,5356
2016-03-19T12:23:39.668Z,5292
2016-03-19T12:24:39.671Z,5220
2016-03-19T12:25:39.704Z,5184
2016-03-19T12:26:39.706Z,5180
2016-03-19T12:27:39.757Z,5144
2016-03-19T12:28:39.743Z,5156
2016-03-19T12:29:39.746Z,5096
2016-03-19T12:30:39.765Z,4992
2016-03-19T12:31:39.782Z,4940
2016-03-19T12:32:39.832Z,4936
2016-03-19T12:33:39.819Z,4912
2016-03-19T12:34:39.823Z,4840
2016-03-19T12:35:39.840Z,4748
2016-03-19T12:36:39.686Z,4672
2016-03-19T12:37:39.845Z,4608
2016-03-19T12:38:39.723Z,4608
2016-03-19T12:39:39.898Z,4612
2016-03-19T12:40:39.917Z,4620
2016-03-19T12:41:39.919Z,4612
2016-03-19T12:42:39.984Z,4616
2016-03-19T12:43:39.986Z,4640
2016-03-19T12:44:39.818Z,4660
2016-03-19T12:45:39.977Z,4664
2016-03-19T12:46:39.244Z,4620
2016-03-19T12:47:40.045Z,4548
2016-03-19T12:48:40.000Z,4484
2016-03-19T12:49:40.050Z,4440
2016-03-19T12:50:40.069Z,4404
2016-03-19T12:51:40.071Z,4384
2016-03-19T12:52:40.104Z,4400
2016-03-19T12:53:40.124Z,4428
2016-03-19T12:54:40.141Z,4440
2016-03-19T12:55:40.144Z,4444
2016-03-19T12:56:40.162Z,4428
2016-03-19T12:57:40.165Z,4364
2016-03-19T12:58:40.199Z,4296
2016-03-19T12:59:40.201Z,4244
2016-03-19T13:00:40.205Z,4188
2016-03-19T13:01:40.223Z,4100
2016-03-19T13:02:40.241Z,3972
2016-03-19T13:03:40.259Z,3828
2016-03-19T13:04:40.278Z,3720
2016-03-19T13:05:40.281Z,3676
2016-03-19T13:06:40.314Z,3680
2016-03-19T13:07:40.348Z,3688
2016-03-19T13:08:40.351Z,3680
2016-03-19T13:09:40.337Z,3664
2016-03-19T13:10:40.373Z,3644
2016-03-19T13:11:40.390Z,3608
2016-03-19T13:12:40.378Z,3572
2016-03-19T13:13:40.395Z,3532
2016-03-19T13:14:40.430Z,3484
2016-03-19T13:15:39.667Z,3436
2016-03-19T13:16:40.435Z,3388
2016-03-19T13:17:40.484Z,3324
2016-03-19T13:18:40.487Z,3272
2016-03-19T13:19:40.489Z,3232
2016-03-19T13:20:40.539Z,3228
2016-03-19T13:21:40.527Z,3228
2016-03-19T13:22:40.544Z,3220
2016-03-19T13:23:40.563Z,3200
2016-03-19T13:24:40.582Z,3188
2016-03-19T13:25:40.569Z,3176
2016-03-19T13:26:40.618Z,3184
2016-03-19T13:27:40.604Z,3208
2016-03-19T13:28:40.623Z,3236
2016-03-19T13:29:40.657Z,3240
2016-03-19T13:30:40.676Z,3220
2016-03-19T13:31:40.694Z,3192
2016-03-19T13:32:40.681Z,3164
2016-03-19T13:33:40.699Z,3156
2016-03-19T13:34:40.717Z,3116
2016-03-19T13:35:40.737Z,3060
2016-03-19T13:36:40.770Z,2988
2016-03-19T13:37:40.773Z,2900
2016-03-19T13:38:40.775Z,2820
2016-03-19T13:39:40.793Z,2788
2016-03-19T13:40:40.812Z,2784
2016-03-19T13:41:40.846Z,2804
2016-03-19T13:42:40.849Z,2816
2016-03-19T13:43:40.851Z,2840
2016-03-19T13:44:40.886Z,2876
2016-03-19T13:45:40.920Z,2904
2016-03-19T13:46:40.891Z,2920
2016-03-19T13:47:40.908Z,2916
2016-03-19T13:48:40.911Z,2900
2016-03-19T13:49:40.945Z,2896
2016-03-19T13:50:40.980Z,2884
2016-03-19T13:51:40.967Z,2872
2016-03-19T13:52:40.970Z,2844
2016-03-19T13:53:41.018Z,2816
2016-03-19T13:54:41.005Z,2792